ADDS METAR Data INFO
IDs: Format: Raw Decoded Include TAF

Data at: 0212 UTC 17 Aug 2018

PFYU 170156Z 24012G22KT 10SM SCT048 BKN120 16/05 A2967 RMK AO2 PK WND 27026/0130 SLP070 T01560050
PFYU 162356Z 25011G17KT 10SM BKN044 15/06 A2967 RMK AO2 SLP072 T01500056 10150 20100 58009
PFYU 162256Z 24008G20KT 10SM SCT037 BKN120 14/06 A2968 RMK AO2 SLP076 T01390056
PFYU 162156Z 25012G18KT 10SM BKN033 13/05 A2969 RMK AO2 SLP079 T01330050
PFYU 162109Z 25011G22KT 10SM BKN031 12/05 A2970 RMK AO2
PFYU 162056Z 25012G20KT 10SM BKN029 12/05 A2970 RMK AO2 SLP082 T01170050 53003
PFYU 161956Z 23013G22KT 10SM BKN027 12/05 A2969 RMK AO2 SLP078 T01170050
PFYU 161856Z 25013G19KT 10SM OVC027 11/05 A2969 RMK AO2 SLP079 T01060050
PFYU 161756Z 24012G20KT 10SM OVC027 10/04 A2969 RMK AO2 SLP079 T01000044 10100 20094 53002
PFYU 161656Z 24012G18KT 10SM SCT027 BKN120 10/04 A2968 RMK AO2 SLP076 T01000044
PFYU 161610Z 25012G22KT 10SM BKN027 BKN120 10/04 A2968 RMK AO2
PFYU 161556Z 25008G19KT 10SM SCT029 BKN120 10/04 A2968 RMK AO2 SLP076 T01000044
PFYU 161456Z AUTO 24008G19KT 10SM OVC110 10/04 A2968 RMK AO2 SLP076 T01000044 58002
PFYU 161356Z AUTO 23007KT 190V260 10SM BKN110 09/05 A2968 RMK AO2 SLP076 T00940050
PFYU 161256Z AUTO 24006G15KT 10SM BKN100 09/05 A2969 RMK AO2 SLP079 T00940050
PFYU 161156Z AUTO VRB05KT 10SM CLR 10/04 A2969 RMK AO2 SLP078 T01000044 10122 20100 58003
PFYU 161056Z AUTO 23007G16KT 10SM CLR 10/05 A2969 RMK AO2 SLP080 T01000050
PFYU 160956Z AUTO 24006KT 10SM CLR 11/06 A2970 RMK AO2 SLP082 T01060056
PFYU 160856Z AUTO 24008KT 10SM CLR 11/06 A2970 RMK AO2 SLP082 T01110056 401500061 50000
PFYU 160756Z AUTO 24009KT 10SM CLR 12/06 A2970 RMK AO2 SLP083 T01170056
PFYU 160656Z AUTO 24006KT 10SM CLR 12/06 A2970 RMK AO2 SLP082 T01220056
PFYU 160556Z AUTO 23007KT 10SM CLR 12/06 A2970 RMK AO2 SLP082 T01220056 10150 20122 58003
PFYU 160456Z AUTO 25009G17KT 10SM CLR 13/05 A2971 RMK AO2 SLP085 T01330050
PFYU 160356Z AUTO 25010G17KT 10SM CLR 14/05 A2971 RMK AO2 SLP085 T01390050
PFYU 160256Z 24009G15KT 10SM SCT036 BKN044 14/06 A2971 RMK AO2 SLP086 T01390056 56013
PFYU 160156Z 24012G17KT 10SM FEW034 BKN044 14/05 A2972 RMK AO2 SLP088 T01440050
PFYU 160056Z 24008G19KT 10SM BKN041 14/06 A2973 RMK AO2 SLP093 T01390061
PFYU 152356Z 25012G21KT 10SM BKN037 14/06 A2975 RMK AO2 SLP099 T01390056 10139 20094 58011
PFYU 152256Z COR 27007G15KT 10SM BKN034 12/06 A2976 RMK AO2 SLP103 T01220056
PFYU 152209Z 24010G17KT 10SM SCT028 OVC034 12/06 A2977 RMK AO2
PFYU 152156Z 27010KT 10SM BKN028 BKN034 12/06 A2977 RMK AO2 SLP108 T01220061
PFYU 152056Z 25006KT 10SM BKN022 BKN031 11/07 A2978 RMK AO2 SLP111 T01110067 58010
PFYU 151956Z VRB05KT 10SM OVC020 11/06 A2980 RMK AO2 SLP117 T01060061
PFYU 151911Z 27004KT 10SM BKN022 BKN028 OVC039 11/06 A2981 RMK AO2
PFYU 151856Z 25004KT 10SM BKN044 11/06 A2981 RMK AO2 SLP121 T01060056
PFYU 151756Z 00000KT 10SM BKN046 OVC060 09/05 A2981 RMK AO2 SLP121 T00940050 10094 20061 58003
PFYU 151656Z 00000KT 10SM BKN055 08/04 A2982 RMK AO2 SLP125 T00780039
PFYU 151556Z 00000KT 10SM BKN060 07/04 A2982 RMK AO2 SLP122 T00670039
PFYU 151456Z AUTO 02004KT 10SM OVC060 06/03 A2982 RMK AO2 SLP123 T00610033 55000